Time;durP1;ratioP1;P1;durP2;ratioP2;P2;SDS_P1;SDS_P2;PMS_P1;PMS_P2;Temp;Humidity;BMP_temperature;BMP_pressure;BME280_temperature;BME280_humidity;BME280_pressure;Samples;Min_cycle;Max_cycle;Signal;HPM_P1;HPM_P2
2023/10/11 00:00:24;;;;;;;6.35;4.78;;;22.70;57.70;;;;;;6202413;28;80413;-60
2023/10/11 00:03:32;;;;;;;8.73;5.10;;;22.70;57.80;;;;;;6213085;28;80184;-61
2023/10/11 00:06:33;;;;;;;9.80;5.72;;;22.60;57.70;;;;;;6202935;28;83413;-60
2023/10/11 00:09:38;;;;;;;8.98;5.57;;;22.60;57.80;;;;;;6212770;27;80501;-60
2023/10/11 00:12:42;;;;;;;8.20;5.13;;;22.60;57.90;;;;;;6203000;28;81325;-62
2023/10/11 00:15:42;;;;;;;9.32;5.22;;;22.60;57.80;;;;;;6214775;27;80392;-61
2023/10/11 00:18:43;;;;;;;9.40;6.03;;;22.60;58.10;;;;;;6202159;28;80647;-61
2023/10/11 00:21:43;;;;;;;7.47;5.07;;;22.60;58.00;;;;;;6203833;28;80933;-62
2023/10/11 00:24:44;;;;;;;6.45;4.43;;;22.60;57.90;;;;;;6220225;28;80467;-61
2023/10/11 00:27:46;;;;;;;7.72;4.88;;;22.60;57.90;;;;;;6211965;28;80658;-63
2023/10/11 00:30:46;;;;;;;7.10;5.32;;;22.60;57.90;;;;;;6207456;28;81364;-60
2023/10/11 00:33:47;;;;;;;7.32;4.93;;;22.60;57.90;;;;;;6199145;28;80709;-64
2023/10/11 00:36:49;;;;;;;9.20;5.50;;;22.50;57.80;;;;;;6199456;28;83465;-62
2023/10/11 00:39:53;;;;;;;7.88;5.00;;;22.50;57.80;;;;;;6221807;28;81817;-64
2023/10/11 00:42:54;;;;;;;7.13;4.90;;;22.50;57.90;;;;;;6225666;27;80203;-64
2023/10/11 00:45:55;;;;;;;9.60;5.65;;;22.50;57.80;;;;;;6229458;28;83240;-64
2023/10/11 00:49:09;;;;;;;8.25;5.47;;;22.50;57.80;;;;;;6236025;27;80537;-64
2023/10/11 00:52:13;;;;;;;9.80;6.10;;;22.50;57.80;;;;;;6222936;28;80425;-63
2023/10/11 00:55:18;;;;;;;10.00;5.78;;;22.50;57.80;;;;;;6202591;28;80395;-64
2023/10/11 00:58:18;;;;;;;8.10;5.20;;;22.50;57.60;;;;;;6226666;27;80464;-64
2023/10/11 01:01:22;;;;;;;10.43;5.57;;;22.50;57.60;;;;;;6226271;27;80351;-64
2023/10/11 01:04:25;;;;;;;6.43;4.78;;;22.50;57.60;;;;;;6233304;27;80354;-63
2023/10/11 01:07:26;;;;;;;7.68;5.38;;;22.50;57.60;;;;;;6217354;27;80246;-63
2023/10/11 01:10:29;;;;;;;9.30;5.38;;;22.50;57.60;;;;;;6240621;27;80971;-61
2023/10/11 01:13:29;;;;;;;9.18;5.45;;;22.50;57.50;;;;;;6242111;27;80246;-62
2023/10/11 01:16:31;;;;;;;8.70;5.20;;;22.50;57.50;;;;;;6221022;27;83642;-62
2023/10/11 01:19:32;;;;;;;11.93;6.07;;;22.50;57.60;;;;;;6216413;28;83426;-62
2023/10/11 01:22:34;;;;;;;8.43;5.45;;;22.50;57.60;;;;;;6201649;28;81154;-63
2023/10/11 01:25:35;;;;;;;8.35;5.57;;;22.50;57.50;;;;;;6216131;28;81441;-63
2023/10/11 01:28:36;;;;;;;9.02;6.00;;;22.50;57.60;;;;;;6205316;28;80956;-62
2023/10/11 01:31:36;;;;;;;9.18;6.00;;;22.50;57.50;;;;;;6206627;28;81148;-62
2023/10/11 01:34:37;;;;;;;6.70;5.15;;;22.50;57.50;;;;;;6211831;28;83235;-63
2023/10/11 01:37:41;;;;;;;7.80;5.40;;;22.50;57.60;;;;;;6205766;28;81003;-63
2023/10/11 01:40:43;;;;;;;9.50;5.32;;;22.50;57.60;;;;;;6204218;28;80236;-63
2023/10/11 01:43:46;;;;;;;8.93;5.65;;;22.50;57.70;;;;;;6211788;28;80782;-62
2023/10/11 01:46:47;;;;;;;7.57;5.35;;;22.50;57.60;;;;;;6226409;28;81680;-61
2023/10/11 01:49:51;;;;;;;8.13;4.88;;;22.40;57.60;;;;;;6237133;27;83557;-61
2023/10/11 01:52:52;;;;;;;6.65;4.72;;;22.50;57.60;;;;;;6240768;27;80183;-61
2023/10/11 01:55:55;;;;;;;8.50;5.22;;;22.40;57.60;;;;;;6225512;28;80560;-60
2023/10/11 01:58:56;;;;;;;9.35;5.50;;;22.50;57.60;;;;;;6228769;28;83358;-59
2023/10/11 02:02:02;;;;;;;8.15;5.40;;;22.40;57.50;;;;;;6222140;28;83320;-61
2023/10/11 02:05:05;;;;;;;8.30;5.57;;;22.40;57.90;;;;;;6217512;27;81679;-63
2023/10/11 02:08:14;;;;;;;9.82;5.32;;;22.50;58.20;;;;;;6214142;27;81203;-64
2023/10/11 02:11:15;;;;;;;7.45;4.90;;;22.50;58.50;;;;;;6207341;28;80828;-64
2023/10/11 02:14:15;;;;;;;11.05;5.05;;;22.50;58.30;;;;;;6218367;28;80677;-65
2023/10/11 02:17:23;;;;;;;7.75;4.97;;;22.50;58.30;;;;;;6218476;27;81246;-66
2023/10/11 02:20:24;;;;;;;6.90;4.68;;;22.50;58.30;;;;;;6220238;28;81445;-65
2023/10/11 02:23:25;;;;;;;8.13;5.30;;;22.50;58.30;;;;;;6224058;28;81724;-65
2023/10/11 02:26:31;;;;;;;8.27;5.05;;;22.50;58.20;;;;;;6224773;27;81242;-65
2023/10/11 02:29:35;;;;;;;7.75;5.25;;;22.50;58.20;;;;;;6210944;28;91665;-63
2023/10/11 02:32:38;;;;;;;7.47;4.38;;;22.50;58.40;;;;;;6197135;28;80269;-65
2023/10/11 02:35:52;;;;;;;9.10;4.90;;;22.50;58.50;;;;;;6204720;28;85111;-64
2023/10/11 02:38:54;;;;;;;8.50;5.00;;;22.50;58.50;;;;;;6201689;27;81544;-65
2023/10/11 02:41:58;;;;;;;9.00;5.28;;;22.50;58.40;;;;;;6219910;28;82888;-64
2023/10/11 02:45:05;;;;;;;6.95;4.65;;;22.50;58.40;;;;;;6220655;28;81703;-63
2023/10/11 02:48:10;;;;;;;8.65;5.18;;;22.50;58.40;;;;;;6200419;28;80187;-63
2023/10/11 02:51:15;;;;;;;10.00;5.30;;;22.50;58.30;;;;;;6120757;28;84671;-62
2023/10/11 02:54:16;;;;;;;7.47;4.97;;;22.50;58.30;;;;;;6097354;27;82978;-62
2023/10/11 02:57:19;;;;;;;7.97;4.82;;;22.50;58.30;;;;;;6099305;27;82783;-62
2023/10/11 03:00:23;;;;;;;7.18;4.57;;;22.50;58.20;;;;;;6094577;27;83423;-62
2023/10/11 03:03:27;;;;;;;8.45;5.03;;;22.50;58.20;;;;;;6106501;27;83714;-62
2023/10/11 03:06:28;;;;;;;8.73;4.80;;;22.50;58.20;;;;;;6088062;27;82934;-62
2023/10/11 03:09:29;;;;;;;6.57;5.13;;;22.50;58.40;;;;;;6092056;28;81171;-62
2023/10/11 03:12:38;;;;;;;8.90;5.78;;;22.50;58.40;;;;;;6095610;28;83336;-62
2023/10/11 03:15:39;;;;;;;9.90;4.72;;;22.50;58.50;;;;;;6087701;28;81430;-62
2023/10/11 03:18:39;;;;;;;8.07;5.05;;;22.50;58.50;;;;;;6089766;28;80699;-62
2023/10/11 03:21:40;;;;;;;9.77;5.18;;;22.60;58.70;;;;;;6094584;28;82355;-64
2023/10/11 03:24:41;;;;;;;8.02;4.82;;;22.60;58.40;;;;;;6101703;28;83436;-64
2023/10/11 03:27:49;;;;;;;6.43;4.57;;;22.60;58.20;;;;;;6088943;28;86995;-63
2023/10/11 03:30:50;;;;;;;7.07;4.68;;;22.70;58.00;;;;;;6095538;28;83308;-64
2023/10/11 03:33:51;;;;;;;9.48;4.97;;;22.70;58.00;;;;;;6093252;27;83434;-61
2023/10/11 03:36:52;;;;;;;8.63;4.22;;;22.70;58.10;;;;;;6096393;28;84029;-61
2023/10/11 03:39:58;;;;;;;6.20;4.40;;;22.70;58.10;;;;;;6100298;28;81450;-62
2023/10/11 03:43:11;;;;;;;6.55;4.97;;;22.70;58.00;;;;;;6102829;28;82062;-62
2023/10/11 03:46:15;;;;;;;11.30;4.65;;;22.70;58.00;;;;;;6100109;28;80807;-63
2023/10/11 03:52:22;;;;;;;8.30;5.13;;;22.80;57.80;;;;;;6103003;27;82655;-59
2023/10/11 03:55:22;;;;;;;6.47;4.80;;;22.80;57.70;;;;;;6104777;27;82044;-59
2023/10/11 03:58:44;;;;;;;7.47;4.65;;;22.80;57.60;;;;;;6109441;28;83306;-58
2023/10/11 04:01:44;;;;;;;6.72;4.70;;;22.80;57.50;;;;;;6219838;27;80438;-57
2023/10/11 04:04:48;;;;;;;7.93;4.60;;;22.90;57.40;;;;;;6223870;27;81591;-55
2023/10/11 04:07:49;;;;;;;7.80;4.68;;;22.90;57.40;;;;;;6223000;27;81233;-58
2023/10/11 04:10:50;;;;;;;7.90;5.40;;;22.90;58.00;;;;;;6206797;28;81071;-58
2023/10/11 04:13:50;;;;;;;10.82;6.13;;;22.90;57.90;;;;;;6211403;28;81111;-66
2023/10/11 04:16:58;;;;;;;14.48;7.10;;;22.90;57.90;;;;;;6209261;28;80599;-68
2023/10/11 04:20:18;;;;;;;10.25;6.75;;;22.90;58.20;;;;;;6218736;28;81077;-69
2023/10/11 04:23:24;;;;;;;12.35;6.57;;;23.00;58.30;;;;;;6223351;27;80849;-66
2023/10/11 04:29:31;;;;;;;12.48;6.43;;;23.00;59.00;;;;;;6214669;28;81048;-63
2023/10/11 04:35:42;;;;;;;10.63;6.68;;;23.00;59.00;;;;;;6214284;28;84970;-63
2023/10/11 04:38:47;;;;;;;13.20;6.88;;;23.00;59.10;;;;;;6202186;28;80350;-58
2023/10/11 04:41:51;;;;;;;28.73;7.57;;;23.00;59.20;;;;;;6206924;27;85840;-57
2023/10/11 04:44:54;;;;;;;12.05;6.05;;;23.10;59.40;;;;;;6215202;27;81482;-59
2023/10/11 04:47:56;;;;;;;13.88;6.43;;;23.10;59.40;;;;;;6206597;28;80155;-56
2023/10/11 04:51:04;;;;;;;19.88;6.75;;;23.10;59.60;;;;;;6216294;28;80635;-59
2023/10/11 04:54:13;;;;;;;19.70;6.47;;;23.10;59.30;;;;;;6214456;28;80701;-58
2023/10/11 04:57:17;;;;;;;28.67;6.68;;;23.10;59.40;;;;;;6215761;28;80837;-57
2023/10/11 05:00:18;;;;;;;26.20;8.10;;;23.10;59.50;;;;;;6204500;28;81893;-61
2023/10/11 05:03:23;;;;;;;19.95;7.10;;;23.10;59.30;;;;;;6221211;28;82044;-62
2023/10/11 05:06:30;;;;;;;12.95;5.93;;;23.10;59.40;;;;;;6231625;27;81313;-57
2023/10/11 05:09:38;;;;;;;14.38;5.47;;;23.10;59.40;;;;;;6223871;28;81786;-56
2023/10/11 05:12:41;;;;;;;13.50;5.68;;;23.10;59.30;;;;;;6107504;28;82327;-63
2023/10/11 05:15:47;;;;;;;12.30;5.93;;;23.10;59.40;;;;;;6101698;28;82562;-63
2023/10/11 05:18:47;;;;;;;12.65;5.32;;;23.10;59.30;;;;;;6088911;28;80574;-63
2023/10/11 05:21:52;;;;;;;10.98;5.05;;;23.10;59.30;;;;;;6096519;28;80395;-63
2023/10/11 05:31:22;;;;;;;13.35;5.47;;;23.00;59.30;;;;;;6082821;28;82408;-62
2023/10/11 05:34:49;;;;;;;18.63;5.72;;;23.00;59.30;;;;;;6084819;28;82517;-63
2023/10/11 05:51:07;;;;;;;18.60;9.65;;;22.90;60.00;;;;;;6093241;27;82417;-59
2023/10/11 05:54:08;;;;;;;18.73;9.07;;;22.80;59.70;;;;;;6106734;27;82298;-63
2023/10/11 05:57:09;;;;;;;14.77;9.02;;;22.80;59.90;;;;;;6104315;28;82419;-63
2023/10/11 06:00:22;;;;;;;22.10;10.15;;;22.60;60.70;;;;;;6098110;28;81564;-63
2023/10/11 06:03:24;;;;;;;15.93;8.55;;;22.60;60.70;;;;;;6087987;27;83776;-65
2023/10/11 06:06:37;;;;;;;18.35;9.45;;;22.40;60.70;;;;;;6082904;27;82256;-66
2023/10/11 06:09:46;;;;;;;16.92;8.85;;;22.40;61.00;;;;;;6083825;28;82132;-65
2023/10/11 06:12:46;;;;;;;19.30;9.48;;;22.30;60.80;;;;;;6085317;28;82376;-66
2023/10/11 06:15:58;;;;;;;16.30;8.48;;;22.30;60.90;;;;;;6102344;27;83246;-66
2023/10/11 06:19:15;;;;;;;18.27;9.38;;;22.30;61.00;;;;;;6086344;27;82424;-64
2023/10/11 06:22:16;;;;;;;19.48;8.00;;;22.20;61.10;;;;;;6074376;28;81610;-65
2023/10/11 06:28:36;;;;;;;17.15;9.48;;;22.20;61.30;;;;;;6073918;28;81486;-65
2023/10/11 06:31:40;;;;;;;12.35;7.78;;;22.10;61.40;;;;;;6085227;28;81017;-66
2023/10/11 06:34:44;;;;;;;12.52;7.63;;;22.10;61.30;;;;;;6100587;28;83108;-65
2023/10/11 06:37:52;;;;;;;16.52;9.13;;;22.10;61.50;;;;;;6084393;28;81720;-65
2023/10/11 06:41:36;;;;;;;18.83;9.05;;;22.10;61.80;;;;;;6104254;28;81226;-66
2023/10/11 06:44:18;;;;;;;18.27;8.73;;;22.00;61.70;;;;;;6105430;27;81443;-66
2023/10/11 06:47:19;;;;;;;15.25;8.60;;;22.00;61.60;;;;;;6091673;28;81756;-66
2023/10/11 06:50:24;;;;;;;15.23;8.93;;;22.10;61.80;;;;;;6117393;28;82061;-65
2023/10/11 06:53:24;;;;;;;14.77;8.50;;;22.00;61.80;;;;;;6103817;27;80300;-65
2023/10/11 06:56:27;;;;;;;14.57;8.73;;;22.00;62.00;;;;;;6081698;28;81115;-66
2023/10/11 06:59:28;;;;;;;16.88;8.25;;;22.00;62.10;;;;;;6084526;28;82591;-66
2023/10/11 07:02:31;;;;;;;16.63;9.15;;;22.00;62.10;;;;;;6107752;28;80567;-65
2023/10/11 07:05:32;;;;;;;18.63;10.00;;;22.00;62.10;;;;;;6108019;27;80472;-66
2023/10/11 07:08:34;;;;;;;17.38;9.18;;;22.00;62.30;;;;;;6081434;28;83110;-68
2023/10/11 07:11:41;;;;;;;17.60;8.75;;;22.00;62.30;;;;;;6080573;28;83047;-65
2023/10/11 07:14:42;;;;;;;24.65;11.27;;;22.00;62.30;;;;;;6094544;27;85524;-66
2023/10/11 07:17:42;;;;;;;14.77;9.52;;;22.00;62.30;;;;;;6078406;28;83330;-64
2023/10/11 07:20:49;;;;;;;16.63;9.73;;;22.00;62.60;;;;;;6081357;28;85074;-64
2023/10/11 07:26:56;;;;;;;19.17;9.32;;;22.00;62.50;;;;;;6079338;28;84893;-64
2023/10/11 07:30:00;;;;;;;16.83;9.55;;;22.00;62.90;;;;;;6090523;28;83087;-64
2023/10/11 07:33:04;;;;;;;19.08;8.40;;;22.10;62.80;;;;;;6087361;28;82878;-64
2023/10/11 07:36:10;;;;;;;16.73;8.90;;;22.10;63.10;;;;;;6080301;28;82967;-64
2023/10/11 07:39:19;;;;;;;19.25;9.35;;;22.10;63.00;;;;;;6084631;28;82392;-65
2023/10/11 07:42:25;;;;;;;25.98;11.02;;;22.20;63.00;;;;;;6099862;27;82850;-65
2023/10/11 07:45:26;;;;;;;23.00;10.60;;;22.30;63.30;;;;;;6094981;28;84860;-64
2023/10/11 07:48:31;;;;;;;20.15;11.20;;;22.30;63.40;;;;;;6091629;28;84794;-65
2023/10/11 07:51:33;;;;;;;23.02;10.10;;;22.30;63.70;;;;;;6077296;28;83831;-65
2023/10/11 07:54:35;;;;;;;22.17;10.23;;;22.40;64.10;;;;;;6077505;28;83073;-66
2023/10/11 07:57:39;;;;;;;21.80;9.90;;;22.40;64.20;;;;;;6078623;28;84161;-66
2023/10/11 08:00:43;;;;;;;23.50;9.77;;;22.50;64.20;;;;;;6080877;28;83417;-67
2023/10/11 08:03:44;;;;;;;14.15;8.43;;;22.50;64.60;;;;;;6085291;28;82269;-66
2023/10/11 08:06:44;;;;;;;15.02;8.98;;;22.60;64.40;;;;;;6093140;28;81965;-66
2023/10/11 08:09:45;;;;;;;20.95;9.07;;;22.60;65.40;;;;;;6085407;28;82421;-66
2023/10/11 08:12:45;;;;;;;18.48;8.68;;;22.70;66.00;;;;;;6060560;28;83455;-68
2023/10/11 08:15:46;;;;;;;15.77;7.22;;;22.80;67.00;;;;;;6099038;28;82153;-62
2023/10/11 08:18:48;;;;;;;20.85;8.52;;;22.70;66.80;;;;;;6094368;28;82907;-64
2023/10/11 08:21:57;;;;;;;21.42;8.35;;;22.80;66.50;;;;;;6091242;28;80313;-62
2023/10/11 08:24:59;;;;;;;15.15;8.65;;;22.90;66.10;;;;;;6089633;28;80263;-65
2023/10/11 08:28:19;;;;;;;16.75;9.30;;;22.80;66.00;;;;;;6071187;28;81827;-65
2023/10/11 08:31:35;;;;;;;21.40;9.32;;;22.90;64.80;;;;;;6091542;28;84642;-63
2023/10/11 08:34:36;;;;;;;19.75;8.65;;;22.90;65.50;;;;;;6098613;28;84436;-63
2023/10/11 08:37:37;;;;;;;20.52;8.50;;;22.90;65.10;;;;;;6101086;28;86341;-64
2023/10/11 08:40:39;;;;;;;18.27;8.63;;;22.90;64.50;;;;;;6090997;28;85179;-61
2023/10/11 08:43:41;;;;;;;20.33;9.50;;;22.90;64.50;;;;;;6089702;28;82365;-72
2023/10/11 08:46:45;;;;;;;17.52;8.13;;;23.00;65.50;;;;;;6097433;28;82367;-76
2023/10/11 08:49:48;;;;;;;16.00;8.40;;;23.00;64.50;;;;;;6092534;28;82116;-76
2023/10/11 08:52:51;;;;;;;16.70;9.40;;;23.10;65.40;;;;;;6095184;28;82197;-75
2023/10/11 08:55:56;;;;;;;17.13;6.22;;;23.10;65.50;;;;;;6097095;27;81761;-74
2023/10/11 08:58:57;;;;;;;10.07;5.60;;;23.10;65.20;;;;;;6083413;28;81829;-77
2023/10/11 09:02:07;;;;;;;13.70;5.15;;;23.20;65.80;;;;;;6094641;28;82398;-77
2023/10/11 09:05:12;;;;;;;10.93;5.07;;;23.30;64.90;;;;;;6095059;28;82594;-76
2023/10/11 09:08:14;;;;;;;10.60;5.13;;;23.40;64.90;;;;;;6095811;27;81656;-76
2023/10/11 09:11:28;;;;;;;11.15;5.10;;;23.50;63.10;;;;;;6098698;28;81474;-76
2023/10/11 09:14:29;;;;;;;13.52;4.47;;;23.50;63.70;;;;;;6097589;28;85158;-76
2023/10/11 09:17:38;;;;;;;12.05;4.70;;;23.60;62.60;;;;;;6097433;27;81871;-76
2023/10/11 09:20:42;;;;;;;11.88;4.53;;;23.60;62.20;;;;;;6100995;28;85580;-75
2023/10/11 09:23:46;;;;;;;10.98;5.03;;;23.70;61.70;;;;;;6101781;28;81236;-71
2023/10/11 09:26:47;;;;;;;13.00;4.88;;;23.80;62.40;;;;;;6102527;27;82961;-66
2023/10/11 09:29:47;;;;;;;9.80;4.68;;;23.80;60.40;;;;;;6093614;28;82309;-66
2023/10/11 09:32:59;;;;;;;17.27;5.47;;;23.80;61.10;;;;;;6085496;28;82120;-67
2023/10/11 09:35:59;;;;;;;9.88;4.70;;;23.90;60.50;;;;;;6089066;28;82220;-68
2023/10/11 09:39:02;;;;;;;9.60;5.25;;;24.00;59.40;;;;;;6091582;27;82512;-67
2023/10/11 09:42:03;;;;;;;12.15;4.28;;;24.10;59.00;;;;;;6084549;28;82486;-67
2023/10/11 09:45:03;;;;;;;10.40;4.75;;;24.10;58.30;;;;;;6080655;28;82137;-73
2023/10/11 09:48:05;;;;;;;12.65;5.00;;;24.10;58.80;;;;;;6091380;28;83658;-72
2023/10/11 09:51:08;;;;;;;10.20;5.13;;;24.20;59.20;;;;;;6079017;28;82049;-74
2023/10/11 09:54:12;;;;;;;10.65;4.53;;;24.20;58.60;;;;;;6078729;28;82365;-75
2023/10/11 09:57:13;;;;;;;12.75;5.45;;;24.30;58.00;;;;;;6080848;28;84261;-73
2023/10/11 10:00:18;;;;;;;9.82;5.20;;;24.30;57.80;;;;;;6079733;28;82245;-76
2023/10/11 10:03:24;;;;;;;12.30;6.00;;;24.30;58.20;;;;;;6082834;28;80565;-59
2023/10/11 10:06:25;;;;;;;12.60;4.68;;;24.40;58.30;;;;;;6085885;28;81482;-60
2023/10/11 10:09:26;;;;;;;9.45;4.70;;;24.40;59.10;;;;;;6082393;28;81682;-60
2023/10/11 10:12:27;;;;;;;10.20;4.82;;;24.50;58.50;;;;;;6080309;28;80508;-60
2023/10/11 10:15:36;;;;;;;11.68;5.10;;;24.50;59.90;;;;;;6081131;28;80907;-61
2023/10/11 10:18:39;;;;;;;9.50;5.05;;;24.50;58.70;;;;;;6084380;28;82130;-60
2023/10/11 10:21:39;;;;;;;10.23;5.13;;;24.60;59.90;;;;;;6091780;27;83565;-65
2023/10/11 10:24:43;;;;;;;12.00;5.70;;;24.50;59.30;;;;;;6099267;28;82254;-65
2023/10/11 10:27:47;;;;;;;11.88;5.45;;;24.50;59.30;;;;;;6097809;28;81693;-64
2023/10/11 10:30:47;;;;;;;12.15;5.40;;;24.50;57.30;;;;;;6087717;27;81307;-64
2023/10/11 10:33:51;;;;;;;11.05;5.55;;;24.60;58.30;;;;;;6092333;27;80548;-63
2023/10/11 10:36:53;;;;;;;13.82;5.43;;;24.60;58.00;;;;;;6098750;28;82287;-59
2023/10/11 10:39:53;;;;;;;13.88;5.75;;;24.60;57.40;;;;;;6093768;27;82137;-64
2023/10/11 10:42:54;;;;;;;10.52;5.13;;;24.60;58.20;;;;;;6092273;28;85691;-64
2023/10/11 10:45:59;;;;;;;10.73;6.00;;;24.60;57.80;;;;;;6098331;27;82172;-64
2023/10/11 10:49:01;;;;;;;11.10;5.25;;;24.60;58.30;;;;;;6100430;28;81714;-64
2023/10/11 10:52:02;;;;;;;11.70;5.40;;;24.60;57.90;;;;;;6078013;27;82867;-63
2023/10/11 10:55:03;;;;;;;12.70;5.47;;;24.70;56.50;;;;;;6105772;28;82066;-63
2023/10/11 10:58:04;;;;;;;11.20;5.20;;;24.70;58.70;;;;;;6101414;28;82096;-71
2023/10/11 11:01:04;;;;;;;14.40;5.30;;;24.70;57.50;;;;;;6095279;27;82111;-74
2023/10/11 11:04:08;;;;;;;15.93;5.53;;;24.80;58.20;;;;;;6101479;28;81772;-71
2023/10/11 11:07:12;;;;;;;15.07;5.72;;;24.80;57.20;;;;;;6104414;27;81539;-69
2023/10/11 11:10:13;;;;;;;10.25;5.63;;;24.80;56.00;;;;;;6116814;27;82182;-68
2023/10/11 11:13:14;;;;;;;10.38;4.97;;;24.90;56.70;;;;;;6101261;27;81360;-69
2023/10/11 11:16:14;;;;;;;13.32;6.15;;;24.90;56.50;;;;;;6119818;27;82878;-75
2023/10/11 11:19:24;;;;;;;12.15;5.40;;;24.90;57.50;;;;;;6105203;27;82257;-78
2023/10/11 11:22:25;;;;;;;11.63;5.45;;;24.90;56.00;;;;;;6093835;27;80560;-78
2023/10/11 11:28:27;;;;;;;14.07;5.35;;;25.00;57.30;;;;;;6097974;27;82161;-75
2023/10/11 11:31:30;;;;;;;10.40;4.85;;;25.10;56.90;;;;;;6089953;27;81529;-72
2023/10/11 11:34:34;;;;;;;11.23;5.03;;;25.20;58.10;;;;;;6089014;28;82986;-68
2023/10/11 11:37:38;;;;;;;13.38;5.57;;;25.20;56.20;;;;;;6089030;27;82167;-65
2023/10/11 11:40:47;;;;;;;9.43;5.38;;;25.30;57.50;;;;;;6086188;27;81945;-68
2023/10/11 11:43:48;;;;;;;11.82;5.00;;;25.30;56.40;;;;;;6088896;28;83605;-67
2023/10/11 11:46:49;;;;;;;8.52;4.85;;;25.30;56.00;;;;;;6095632;27;82199;-68
2023/10/11 11:49:49;;;;;;;12.15;5.38;;;25.40;56.90;;;;;;6099946;27;81425;-66
2023/10/11 11:52:50;;;;;;;14.73;5.88;;;25.50;57.60;;;;;;6101518;28;81045;-68
2023/10/11 11:55:51;;;;;;;13.13;5.97;;;25.50;56.10;;;;;;6087146;28;84027;-66
2023/10/11 11:59:00;;;;;;;10.82;5.35;;;25.50;56.70;;;;;;6098586;28;82375;-66
2023/10/11 12:02:00;;;;;;;16.45;5.82;;;25.60;58.80;;;;;;6083344;28;80409;-66
2023/10/11 12:05:01;;;;;;;12.55;5.35;;;25.60;56.40;;;;;;6086470;28;80987;-69
2023/10/11 12:08:01;;;;;;;21.35;5.90;;;25.60;57.30;;;;;;6089893;27;81119;-66
2023/10/11 12:11:02;;;;;;;9.50;4.75;;;25.60;57.20;;;;;;6081330;28;81845;-63
2023/10/11 12:14:04;;;;;;;16.20;4.57;;;25.70;59.80;;;;;;6089163;28;80413;-61
2023/10/11 12:17:10;;;;;;;13.45;5.25;;;25.70;58.50;;;;;;6092347;27;81969;-63
2023/10/11 12:20:12;;;;;;;11.75;6.07;;;25.70;58.50;;;;;;6105911;27;82038;-61
2023/10/11 12:23:13;;;;;;;14.18;5.10;;;25.70;56.90;;;;;;6080991;28;80412;-62
2023/10/11 12:26:16;;;;;;;13.40;4.93;;;25.70;57.00;;;;;;6078482;28;82067;-63
2023/10/11 12:29:18;;;;;;;10.32;5.10;;;25.70;56.60;;;;;;6090689;28;81190;-61
2023/10/11 12:32:19;;;;;;;11.80;5.10;;;25.60;58.20;;;;;;6100267;28;83100;-71
2023/10/11 12:35:23;;;;;;;10.88;5.65;;;25.60;58.00;;;;;;6099696;28;83087;-71
2023/10/11 12:38:23;;;;;;;13.65;4.63;;;25.50;57.40;;;;;;6087220;28;80889;-68
2023/10/11 12:41:24;;;;;;;12.77;4.47;;;25.60;57.10;;;;;;6095310;27;82120;-69
2023/10/11 12:44:24;;;;;;;11.27;5.13;;;25.60;58.10;;;;;;6096180;28;82135;-71
2023/10/11 12:47:25;;;;;;;9.77;5.13;;;25.60;57.50;;;;;;6100576;27;82068;-71
2023/10/11 12:50:25;;;;;;;20.95;5.65;;;25.60;56.70;;;;;;6108816;28;83580;-63
2023/10/11 12:53:29;;;;;;;12.30;4.80;;;25.60;56.60;;;;;;6098850;27;82108;-61
2023/10/11 12:56:30;;;;;;;14.45;5.13;;;25.60;58.00;;;;;;6100910;28;82281;-62
2023/10/11 12:59:30;;;;;;;15.13;4.90;;;25.60;56.00;;;;;;6100442;28;82098;-65
2023/10/11 13:02:33;;;;;;;10.63;4.40;;;25.60;55.80;;;;;;6103010;27;82098;-63
2023/10/11 13:05:34;;;;;;;11.55;4.70;;;25.60;55.40;;;;;;6093034;27;82190;-62
2023/10/11 13:08:35;;;;;;;9.32;4.93;;;25.60;55.20;;;;;;6093100;27;81966;-61
2023/10/11 13:11:35;;;;;;;10.02;3.85;;;25.60;54.90;;;;;;6091731;28;83230;-60
2023/10/11 13:14:38;;;;;;;11.13;4.25;;;25.70;54.80;;;;;;6095615;28;82211;-60
2023/10/11 13:17:40;;;;;;;11.63;5.13;;;25.70;56.10;;;;;;6071514;28;86256;-63
2023/10/11 13:20:41;;;;;;;10.93;4.18;;;25.70;55.90;;;;;;6094473;27;80528;-60
2023/10/11 13:23:43;;;;;;;14.75;5.63;;;25.70;54.90;;;;;;6075594;28;82637;-63
2023/10/11 13:26:44;;;;;;;15.27;4.88;;;25.60;54.90;;;;;;6077136;28;81506;-63
2023/10/11 13:29:47;;;;;;;12.50;4.32;;;25.60;55.10;;;;;;6080213;28;83339;-61
2023/10/11 13:32:47;;;;;;;11.88;3.88;;;25.50;55.90;;;;;;6086143;27;82057;-59
2023/10/11 13:35:49;;;;;;;15.20;4.55;;;25.50;55.50;;;;;;6085992;27;81688;-64
2023/10/11 13:38:50;;;;;;;10.65;4.25;;;25.50;56.20;;;;;;6085169;28;81166;-62
2023/10/11 13:41:52;;;;;;;15.13;4.70;;;25.50;56.80;;;;;;6089861;27;82229;-63
2023/10/11 13:44:54;;;;;;;14.98;4.40;;;25.40;56.40;;;;;;6089492;27;80749;-61
2023/10/11 13:47:54;;;;;;;17.00;5.35;;;25.40;55.90;;;;;;6087586;28;80775;-60
2023/10/11 13:50:56;;;;;;;15.10;4.50;;;25.30;56.20;;;;;;6093474;28;81541;-60
2023/10/11 13:53:56;;;;;;;11.60;4.85;;;25.30;55.80;;;;;;6088682;28;82276;-62
2023/10/11 13:56:58;;;;;;;16.48;4.60;;;25.30;55.40;;;;;;6095708;27;82195;-61
2023/10/11 14:00:59;;;;;;;9.63;4.32;;;25.20;55.80;;;;;;6090530;27;82362;-60
2023/10/11 14:06:30;;;;;;;9.27;4.43;;;24.90;54.70;;;;;;6093974;27;81904;-66
2023/10/11 14:09:31;;;;;;;9.57;4.57;;;24.90;55.40;;;;;;6092982;28;82039;-65
2023/10/11 14:12:35;;;;;;;11.80;4.50;;;24.80;54.60;;;;;;6097571;28;82055;-65
2023/10/11 14:15:35;;;;;;;14.27;6.38;;;24.70;54.80;;;;;;6080247;28;85857;-63
2023/10/11 14:18:38;;;;;;;24.17;5.93;;;24.70;55.60;;;;;;6082043;28;81952;-65
2023/10/11 14:21:40;;;;;;;19.30;5.25;;;24.70;55.50;;;;;;6099184;28;82194;-63
2023/10/11 14:24:41;;;;;;;10.32;5.20;;;24.70;55.20;;;;;;6103561;28;82121;-65
2023/10/11 14:27:41;;;;;;;17.33;5.78;;;24.70;55.10;;;;;;6101259;27;84663;-62
2023/10/11 14:30:44;;;;;;;11.73;5.25;;;24.70;55.00;;;;;;6104928;27;82167;-64
2023/10/11 14:33:47;;;;;;;16.10;5.07;;;24.70;54.90;;;;;;6097578;28;81957;-64
2023/10/11 14:36:50;;;;;;;9.60;4.75;;;24.60;54.80;;;;;;6094444;27;82072;-64
2023/10/11 14:39:51;;;;;;;15.20;4.80;;;24.50;54.80;;;;;;6091334;27;87095;-74
2023/10/11 14:42:52;;;;;;;11.10;4.75;;;24.40;55.00;;;;;;6105591;27;82051;-73
2023/10/11 14:45:53;;;;;;;15.00;4.57;;;24.40;55.10;;;;;;6099712;27;82342;-72
2023/10/11 14:48:54;;;;;;;12.90;5.20;;;24.40;55.30;;;;;;6083292;28;81970;-72
2023/10/11 14:51:55;;;;;;;14.93;5.60;;;24.40;55.40;;;;;;6100207;28;82192;-69
2023/10/11 14:54:59;;;;;;;30.02;5.43;;;24.40;55.20;;;;;;6089536;28;82357;-60
2023/10/11 14:58:00;;;;;;;12.30;4.93;;;24.40;55.50;;;;;;6091995;27;82458;-70
2023/10/11 15:01:01;;;;;;;12.98;4.80;;;24.50;55.60;;;;;;6092024;27;82073;-68
2023/10/11 15:04:09;;;;;;;13.02;4.25;;;24.50;55.70;;;;;;6096721;27;82192;-69
2023/10/11 15:07:10;;;;;;;18.75;5.35;;;24.50;56.00;;;;;;6103833;27;83673;-71
2023/10/11 15:10:11;;;;;;;12.07;4.72;;;24.60;56.10;;;;;;6097445;28;82072;-71
2023/10/11 15:13:11;;;;;;;12.50;4.38;;;24.60;56.40;;;;;;6149957;28;82171;-67
2023/10/11 15:16:15;;;;;;;14.38;5.25;;;24.60;56.40;;;;;;6229742;28;87662;-70
2023/10/11 15:19:15;;;;;;;15.90;4.88;;;24.60;56.50;;;;;;6214328;28;81429;-68
2023/10/11 15:22:18;;;;;;;19.88;4.60;;;24.60;56.60;;;;;;6225341;27;81939;-69
2023/10/11 15:25:18;;;;;;;10.40;4.15;;;24.60;56.60;;;;;;6225859;28;81394;-69
2023/10/11 15:28:19;;;;;;;14.48;4.82;;;24.60;56.70;;;;;;6222403;28;80768;-67
2023/10/11 15:31:19;;;;;;;12.55;5.07;;;24.60;56.90;;;;;;6117493;28;82259;-74
2023/10/11 15:34:20;;;;;;;14.20;4.72;;;24.60;56.80;;;;;;6098903;27;82229;-66
2023/10/11 15:37:20;;;;;;;14.02;4.38;;;24.60;57.10;;;;;;6090354;28;81992;-69
2023/10/11 15:40:21;;;;;;;16.33;5.07;;;24.60;57.40;;;;;;6095792;27;80536;-67
2023/10/11 15:43:21;;;;;;;20.20;5.07;;;24.60;57.20;;;;;;6208263;27;81952;-67
2023/10/11 15:46:22;;;;;;;11.48;4.75;;;24.60;56.90;;;;;;6220551;27;80756;-67
2023/10/11 15:49:22;;;;;;;15.23;4.38;;;24.50;57.20;;;;;;6218186;28;81351;-65
2023/10/11 15:52:23;;;;;;;12.88;4.60;;;24.50;57.00;;;;;;6217334;28;80596;-63
2023/10/11 15:55:23;;;;;;;12.27;5.15;;;24.50;57.10;;;;;;6214346;27;81769;-65
2023/10/11 15:58:24;;;;;;;10.88;4.07;;;24.40;57.50;;;;;;6216089;28;81220;-62
2023/10/11 16:01:27;;;;;;;10.32;4.68;;;24.40;57.30;;;;;;6217228;27;81936;-63
2023/10/11 16:04:28;;;;;;;10.35;4.70;;;24.40;57.60;;;;;;6221498;27;80790;-63
2023/10/11 16:07:28;;;;;;;13.52;4.75;;;24.40;57.50;;;;;;6205787;27;80358;-64
2023/10/11 16:10:29;;;;;;;17.52;6.03;;;24.40;57.70;;;;;;6208094;28;80310;-63
2023/10/11 16:13:30;;;;;;;12.75;4.93;;;24.30;57.50;;;;;;6220735;28;82501;-66
2023/10/11 16:16:31;;;;;;;11.32;5.75;;;24.30;57.70;;;;;;6225177;27;81619;-65
2023/10/11 16:19:33;;;;;;;13.05;5.45;;;24.20;56.90;;;;;;6214571;28;80394;-64
2023/10/11 16:22:34;;;;;;;14.35;5.40;;;24.20;57.40;;;;;;6201240;28;81105;-65
2023/10/11 16:25:34;;;;;;;16.95;5.70;;;24.10;57.50;;;;;;6223948;28;80705;-65